Terminal Aerodrome Forecast
Issued by NWS

Home | Current Version | Previous Version | Text Only | Print | Product List | Glossary On
Versions: 1 2 3 4 5 6 7 8 9 10 11 12
000
FTUS45 KRIW 161700
TAFJAC
TAF
KJAC 161720Z 1618/1718 VRB05KT P6SM VCSH SCT110 BKN150
     FM161900 VRB11G17KT P6SM VCSH SCT080 BKN120
     FM170000 VRB05KT P6SM BKN120
     FM170600 36005KT P6SM SCT110
      AMD LTD TO CLD VIS AND WIND=

USA.gov is the U.S. government's official web portal to all federal, state and local government web resources and services.